Time;durP1;ratioP1;P1;durP2;ratioP2;P2;SDS_P1;SDS_P2;PMS_P1;PMS_P2;Temp;Humidity;BMP_temperature;BMP_pressure;BME280_temperature;BME280_humidity;BME280_pressure;Samples;Min_cycle;Max_cycle;Signal;HPM_P1;HPM_P2
2023/03/31 00:00:37;;;;;;;15.93;8.38;;;8.50;99.90;;;;;;7591081;19;20462;-77
2023/03/31 00:03:09;;;;;;;13.07;7.90;;;8.40;99.90;;;;;;7594347;19;20018;-76
2023/03/31 00:05:46;;;;;;;13.68;7.50;;;8.40;99.90;;;;;;7560724;19;20350;-77
2023/03/31 00:08:20;;;;;;;14.57;7.72;;;8.40;99.90;;;;;;7547095;19;20014;-77
2023/03/31 00:10:52;;;;;;;18.98;8.40;;;8.40;99.90;;;;;;7567556;19;20516;-76
2023/03/31 00:13:25;;;;;;;22.05;8.65;;;8.40;99.90;;;;;;7585305;19;20360;-76
2023/03/31 00:16:03;;;;;;;15.02;8.68;;;8.50;99.90;;;;;;7592977;19;20497;-75
2023/03/31 00:18:36;;;;;;;12.25;7.85;;;8.50;99.90;;;;;;7593496;19;20505;-75
2023/03/31 00:21:23;;;;;;;13.90;7.80;;;8.60;99.90;;;;;;7610448;19;20015;-76
2023/03/31 00:24:08;;;;;;;14.23;8.18;;;8.70;99.90;;;;;;7588061;19;21247;-75
2023/03/31 00:26:41;;;;;;;16.42;8.73;;;8.70;99.90;;;;;;7604292;19;20058;-76
2023/03/31 00:29:13;;;;;;;13.40;7.50;;;8.60;99.90;;;;;;7579391;19;20018;-75
2023/03/31 00:31:45;;;;;;;18.00;8.73;;;8.60;99.90;;;;;;7595714;19;20033;-75
2023/03/31 00:34:17;;;;;;;13.23;8.40;;;8.70;99.90;;;;;;7586291;19;20181;-75
2023/03/31 00:36:50;;;;;;;17.00;9.45;;;8.70;99.90;;;;;;7587322;19;20021;-78
2023/03/31 00:39:30;;;;;;;17.98;8.48;;;8.70;99.90;;;;;;7593952;19;20025;-76
2023/03/31 00:42:03;;;;;;;20.50;8.48;;;8.70;99.90;;;;;;7604030;19;20014;-74
2023/03/31 00:44:58;;;;;;;19.80;9.13;;;8.60;99.90;;;;;;7595800;19;20619;-75
2023/03/31 00:47:30;;;;;;;13.55;7.68;;;8.50;99.90;;;;;;7584955;19;20013;-75
2023/03/31 00:50:03;;;;;;;16.42;9.00;;;8.50;99.90;;;;;;7596978;19;20025;-77
2023/03/31 00:52:36;;;;;;;19.83;8.57;;;8.60;99.90;;;;;;7596788;19;20021;-76
2023/03/31 00:55:17;;;;;;;16.65;8.05;;;8.60;99.90;;;;;;7596118;19;20436;-78
2023/03/31 00:57:52;;;;;;;19.95;8.20;;;8.50;99.90;;;;;;7597501;19;20014;-76
2023/03/31 01:00:24;;;;;;;13.50;8.93;;;8.50;99.90;;;;;;7588687;19;20094;-75
2023/03/31 01:03:02;;;;;;;16.92;9.38;;;8.50;99.90;;;;;;7584128;19;20042;-75
2023/03/31 01:06:05;;;;;;;15.27;9.20;;;8.50;99.90;;;;;;7591478;19;20088;-76
2023/03/31 01:08:39;;;;;;;;;;;8.40;99.90;;;;;;7584007;19;20044;-75
2023/03/31 01:11:15;;;;;;;18.50;9.20;;;8.40;99.90;;;;;;7601915;19;20485;-76
2023/03/31 01:13:49;;;;;;;19.42;8.95;;;8.40;99.90;;;;;;7596560;19;20015;-76
2023/03/31 01:16:21;;;;;;;17.15;8.80;;;8.40;99.90;;;;;;7601207;19;20026;-76
2023/03/31 01:18:56;;;;;;;20.67;9.02;;;8.50;99.90;;;;;;7596899;19;20015;-76
2023/03/31 01:22:13;;;;;;;20.08;9.30;;;8.50;99.90;;;;;;7596713;19;20503;-76
2023/03/31 01:25:10;;;;;;;14.13;8.57;;;8.50;99.90;;;;;;7562478;19;20019;-76
2023/03/31 01:28:14;;;;;;;17.48;9.20;;;8.50;99.90;;;;;;7585678;19;20041;-76
2023/03/31 01:31:04;;;;;;;12.98;8.18;;;8.50;99.90;;;;;;7591216;19;20359;-76
2023/03/31 01:33:59;;;;;;;18.38;8.50;;;8.50;99.90;;;;;;7590134;19;20018;-75
2023/03/31 01:36:56;;;;;;;10.88;8.07;;;8.60;99.90;;;;;;7589477;19;20026;-77
2023/03/31 01:39:47;;;;;;;16.80;8.98;;;8.50;99.90;;;;;;7570137;19;20018;-76
2023/03/31 01:42:52;;;;;;;14.48;9.20;;;8.60;99.90;;;;;;7590879;19;20010;-76
2023/03/31 01:45:39;;;;;;;17.07;8.83;;;8.60;99.90;;;;;;7573984;19;20022;-75
2023/03/31 01:48:19;;;;;;;15.25;9.15;;;8.50;99.90;;;;;;7584188;19;20040;-77
2023/03/31 01:50:56;;;;;;;17.27;8.25;;;8.40;99.90;;;;;;7585904;19;20116;-76
2023/03/31 01:53:37;;;;;;;17.00;8.77;;;8.30;99.90;;;;;;7582135;19;20508;-76
2023/03/31 01:56:16;;;;;;;14.05;8.68;;;8.40;99.90;;;;;;7593325;19;20486;-75
2023/03/31 01:58:56;;;;;;;16.15;8.98;;;8.40;99.90;;;;;;7593165;19;20018;-75
2023/03/31 02:01:37;;;;;;;18.55;9.35;;;8.40;99.90;;;;;;7584976;19;20702;-76
2023/03/31 02:04:13;;;;;;;19.40;9.20;;;8.50;99.90;;;;;;7584273;19;20465;-75
2023/03/31 02:06:52;;;;;;;15.18;8.88;;;8.50;99.90;;;;;;7585016;19;20011;-76
2023/03/31 02:09:35;;;;;;;16.20;8.93;;;8.60;99.90;;;;;;7603850;19;20028;-75
2023/03/31 02:12:10;;;;;;;20.05;10.05;;;8.60;99.90;;;;;;7593832;19;20025;-76
2023/03/31 02:14:46;;;;;;;16.98;8.30;;;8.60;99.90;;;;;;7582740;19;20025;-76
2023/03/31 02:17:29;;;;;;;16.45;9.25;;;8.50;99.90;;;;;;7599677;19;20026;-78
2023/03/31 02:20:11;;;;;;;13.00;8.32;;;8.60;99.90;;;;;;7594891;19;20045;-77
2023/03/31 02:22:48;;;;;;;17.58;9.38;;;8.60;99.90;;;;;;7610740;19;20018;-75
2023/03/31 02:25:31;;;;;;;17.15;8.93;;;8.60;99.90;;;;;;7588259;19;20022;-75
2023/03/31 02:28:09;;;;;;;14.32;8.60;;;8.60;99.90;;;;;;7588557;19;20014;-77
2023/03/31 02:30:56;;;;;;;18.25;9.10;;;8.60;99.90;;;;;;7593222;19;20026;-75
2023/03/31 02:33:29;;;;;;;16.13;9.23;;;8.60;99.90;;;;;;7595809;19;20572;-76
2023/03/31 02:36:02;;;;;;;14.35;8.43;;;8.50;99.90;;;;;;7569242;19;20015;-75
2023/03/31 02:38:43;;;;;;;16.65;9.20;;;8.50;99.90;;;;;;7591431;19;20098;-77
2023/03/31 02:41:16;;;;;;;19.65;8.70;;;8.60;99.90;;;;;;7596216;19;20026;-77
2023/03/31 02:43:48;;;;;;;18.65;9.20;;;8.60;99.90;;;;;;7604919;19;20018;-76
2023/03/31 02:46:20;;;;;;;16.48;8.48;;;8.70;99.90;;;;;;7597943;19;20109;-76
2023/03/31 02:48:56;;;;;;;18.15;8.65;;;8.70;99.90;;;;;;7608670;19;20006;-75
2023/03/31 02:52:20;;;;;;;14.20;8.00;;;8.80;99.90;;;;;;7593605;19;20634;-77
2023/03/31 02:55:15;;;;;;;15.40;7.72;;;8.80;99.90;;;;;;7595605;19;20018;-77
2023/03/31 02:58:00;;;;;;;14.65;7.93;;;8.90;99.90;;;;;;7603831;19;20029;-77
2023/03/31 03:00:43;;;;;;;17.83;7.90;;;9.00;99.90;;;;;;7602911;19;20019;-77
2023/03/31 03:03:28;;;;;;;18.42;9.05;;;8.90;99.90;;;;;;7593878;19;20734;-76
2023/03/31 03:06:17;;;;;;;17.05;9.05;;;8.90;99.90;;;;;;7586073;19;20082;-77
2023/03/31 03:09:15;;;;;;;14.35;8.43;;;9.00;99.90;;;;;;7598474;19;20014;-76
2023/03/31 03:12:03;;;;;;;15.82;8.00;;;9.00;99.90;;;;;;7604598;19;20022;-76
2023/03/31 03:15:04;;;;;;;14.85;7.82;;;9.00;99.90;;;;;;7597344;19;20018;-77
2023/03/31 03:17:48;;;;;;;14.85;8.27;;;9.00;99.90;;;;;;7603693;19;20057;-77
2023/03/31 03:20:21;;;;;;;14.63;8.17;;;9.00;99.90;;;;;;7605843;19;20022;-77
2023/03/31 03:22:53;;;;;;;18.67;8.20;;;9.00;99.90;;;;;;7580147;19;20086;-76
2023/03/31 03:25:25;;;;;;;15.82;7.80;;;9.10;99.90;;;;;;7598397;19;20018;-77
2023/03/31 03:27:57;;;;;;;20.42;8.23;;;9.20;99.90;;;;;;7594350;19;20033;-76
2023/03/31 03:30:29;;;;;;;13.90;8.40;;;9.10;99.90;;;;;;7597449;19;20143;-77
2023/03/31 03:33:05;;;;;;;20.88;11.43;;;9.10;99.90;;;;;;7583198;19;20150;-76
2023/03/31 03:35:37;;;;;;;24.23;11.30;;;9.10;99.90;;;;;;7598938;19;20038;-76
2023/03/31 03:38:09;;;;;;;18.10;9.40;;;9.00;99.90;;;;;;7588046;19;20018;-77
2023/03/31 03:40:41;;;;;;;17.05;9.15;;;8.90;99.90;;;;;;7605117;19;20010;-77
2023/03/31 03:43:13;;;;;;;22.75;9.75;;;9.00;99.90;;;;;;7608095;19;20022;-76
2023/03/31 03:45:49;;;;;;;17.02;8.93;;;9.00;99.90;;;;;;7602259;19;20029;-78
2023/03/31 03:48:21;;;;;;;21.60;9.90;;;8.90;99.90;;;;;;7596767;19;21052;-76
2023/03/31 03:50:54;;;;;;;16.02;9.50;;;8.90;99.90;;;;;;7598618;19;20037;-76
2023/03/31 03:53:27;;;;;;;17.92;10.43;;;8.70;99.90;;;;;;7603198;19;20538;-76
2023/03/31 03:56:00;;;;;;;23.08;11.25;;;8.70;99.90;;;;;;7608870;19;20061;-75
2023/03/31 03:58:32;;;;;;;21.23;11.95;;;8.70;99.90;;;;;;7611172;19;20014;-77
2023/03/31 04:01:04;;;;;;;18.25;10.73;;;8.60;99.90;;;;;;7590177;19;20057;-76
2023/03/31 04:03:36;;;;;;;22.27;10.40;;;8.60;99.90;;;;;;7614293;19;20018;-77
2023/03/31 04:06:09;;;;;;;23.45;10.60;;;8.60;99.90;;;;;;7597714;19;20049;-77
2023/03/31 04:08:41;;;;;;;21.30;10.27;;;8.70;99.90;;;;;;7602523;19;20007;-76
2023/03/31 04:11:16;;;;;;;22.40;11.00;;;8.70;99.90;;;;;;7589839;19;20021;-78
2023/03/31 04:13:50;;;;;;;27.13;10.75;;;8.70;99.90;;;;;;7602701;19;20077;-76
2023/03/31 04:16:24;;;;;;;23.13;11.48;;;8.70;99.90;;;;;;7586875;19;20053;-77
2023/03/31 04:18:58;;;;;;;;;;;8.80;99.90;;;;;;7597623;19;20741;-75
2023/03/31 04:21:33;;;;;;;17.88;10.75;;;8.80;99.90;;;;;;7594730;19;19918;-77
2023/03/31 04:24:06;;;;;;;26.33;11.32;;;8.80;99.90;;;;;;7587522;19;20508;-76
2023/03/31 04:26:41;;;;;;;23.67;11.10;;;8.70;99.90;;;;;;7586685;19;20053;-77
2023/03/31 04:29:15;;;;;;;24.27;11.77;;;8.70;99.90;;;;;;7584091;19;20015;-76
2023/03/31 04:31:49;;;;;;;21.42;11.55;;;8.80;99.90;;;;;;7563396;19;20025;-75
2023/03/31 04:34:25;;;;;;;27.15;13.32;;;8.70;99.90;;;;;;7574548;19;20013;-76
2023/03/31 04:37:01;;;;;;;21.65;12.38;;;8.70;99.90;;;;;;7518055;19;20124;-76
2023/03/31 04:39:34;;;;;;;23.55;11.90;;;8.70;99.90;;;;;;7579215;19;20061;-76
2023/03/31 04:42:06;;;;;;;24.58;12.82;;;8.70;99.90;;;;;;7593891;19;20011;-76
2023/03/31 04:44:38;;;;;;;26.08;13.25;;;8.70;99.90;;;;;;7581018;19;21116;-76
2023/03/31 04:47:10;;;;;;;22.67;12.10;;;8.70;99.90;;;;;;7567809;19;20018;-75
2023/03/31 04:49:42;;;;;;;28.73;12.25;;;8.70;99.90;;;;;;7565604;19;20011;-74
2023/03/31 04:52:15;;;;;;;18.15;12.20;;;8.70;99.90;;;;;;7574174;19;20010;-74
2023/03/31 04:54:47;;;;;;;24.30;13.13;;;8.80;99.90;;;;;;7553454;19;20086;-80
2023/03/31 04:57:20;;;;;;;25.92;13.35;;;8.70;99.90;;;;;;7587171;19;20117;-80
2023/03/31 04:59:52;;;;;;;23.75;13.95;;;8.70;99.90;;;;;;7557361;19;20721;-79
2023/03/31 05:02:24;;;;;;;22.80;13.35;;;8.60;99.90;;;;;;7559609;19;20010;-80
2023/03/31 05:04:57;;;;;;;26.88;13.23;;;8.60;99.90;;;;;;7553088;19;20021;-80
2023/03/31 05:07:30;;;;;;;21.37;13.27;;;8.60;99.90;;;;;;7553071;19;20021;-81
2023/03/31 05:10:03;;;;;;;26.95;15.15;;;8.60;99.90;;;;;;7584332;19;20015;-80
2023/03/31 05:12:37;;;;;;;29.65;15.25;;;8.60;99.90;;;;;;7596579;19;25189;-79
2023/03/31 05:15:09;;;;;;;27.48;16.25;;;8.50;99.90;;;;;;7560979;19;20045;-80
2023/03/31 05:17:41;;;;;;;29.00;13.30;;;8.50;99.90;;;;;;7546891;19;20014;-81
2023/03/31 05:20:15;;;;;;;20.67;12.57;;;8.50;99.90;;;;;;7521804;19;20015;-80
2023/03/31 05:22:47;;;;;;;25.63;14.63;;;8.60;99.90;;;;;;7587888;19;20016;-80
2023/03/31 05:25:19;;;;;;;25.80;12.93;;;8.50;99.90;;;;;;7583059;19;20018;-82
2023/03/31 05:27:52;;;;;;;22.98;12.18;;;8.50;99.90;;;;;;7558566;19;20082;-81
2023/03/31 05:30:27;;;;;;;25.35;13.25;;;8.60;99.90;;;;;;7560435;19;20056;-82
2023/03/31 05:33:03;;;;;;;28.63;15.02;;;8.60;99.90;;;;;;7555284;19;20023;-82
2023/03/31 05:35:39;;;;;;;21.00;12.75;;;8.50;99.90;;;;;;7528926;19;20042;-83
2023/03/31 05:38:11;;;;;;;22.05;13.30;;;8.50;99.90;;;;;;7550373;19;20050;-82
2023/03/31 05:40:43;;;;;;;22.55;11.85;;;8.50;99.90;;;;;;7562874;19;20043;-80
2023/03/31 05:43:15;;;;;;;25.10;13.98;;;8.50;99.90;;;;;;7580162;19;20014;-82
2023/03/31 05:45:48;;;;;;;24.17;12.82;;;8.50;99.90;;;;;;7588583;19;20369;-80
2023/03/31 05:48:20;;;;;;;22.20;11.90;;;8.50;99.90;;;;;;7545251;19;20508;-78
2023/03/31 05:50:58;;;;;;;24.40;13.10;;;8.60;99.90;;;;;;7599638;19;20503;-78
2023/03/31 05:53:30;;;;;;;23.52;13.40;;;8.60;99.90;;;;;;7620351;19;20057;-77
2023/03/31 05:56:05;;;;;;;33.30;13.20;;;8.60;99.90;;;;;;7589884;19;21099;-78
2023/03/31 05:58:38;;;;;;;23.02;12.27;;;8.60;99.90;;;;;;7593570;19;20421;-81
2023/03/31 06:01:18;;;;;;;35.42;13.32;;;8.60;99.90;;;;;;7595669;19;20010;-82
2023/03/31 06:03:50;;;;;;;25.33;11.15;;;8.70;99.90;;;;;;7612532;19;20030;-80
2023/03/31 06:06:24;;;;;;;23.88;12.25;;;8.80;99.90;;;;;;7609423;19;20020;-81
2023/03/31 06:08:57;;;;;;;20.25;10.98;;;8.70;99.90;;;;;;7615977;19;20039;-81
2023/03/31 06:11:29;;;;;;;21.35;11.07;;;8.80;99.90;;;;;;7606559;19;20503;-80
2023/03/31 06:14:02;;;;;;;21.58;11.07;;;8.80;99.90;;;;;;7599875;19;20090;-81
2023/03/31 06:16:34;;;;;;;22.23;11.18;;;8.80;99.90;;;;;;7605656;19;20047;-80
2023/03/31 06:19:07;;;;;;;20.60;11.50;;;8.90;99.90;;;;;;7602534;19;20027;-77
2023/03/31 06:21:39;;;;;;;18.98;11.98;;;9.00;99.90;;;;;;7605450;19;21113;-82
2023/03/31 06:24:12;;;;;;;18.25;10.10;;;8.90;99.90;;;;;;7583119;19;20662;-78
2023/03/31 06:26:44;;;;;;;17.77;11.95;;;8.90;99.90;;;;;;7550738;19;20010;-78
2023/03/31 06:29:17;;;;;;;21.90;11.10;;;8.90;99.90;;;;;;7579079;19;20012;-79
2023/03/31 06:31:49;;;;;;;19.52;11.15;;;8.90;99.90;;;;;;7573747;19;20025;-80
2023/03/31 06:34:21;;;;;;;17.88;9.98;;;8.90;99.90;;;;;;7573345;19;20532;-80
2023/03/31 06:36:54;;;;;;;21.90;10.85;;;8.90;99.90;;;;;;7585148;19;20139;-79
2023/03/31 06:39:26;;;;;;;17.13;10.82;;;8.80;99.90;;;;;;7585205;19;20018;-81
2023/03/31 06:41:59;;;;;;;19.60;10.50;;;8.90;99.90;;;;;;7588882;19;20105;-78
2023/03/31 06:44:32;;;;;;;21.98;10.30;;;8.90;99.90;;;;;;7596880;19;20022;-81
2023/03/31 06:47:04;;;;;;;23.67;10.98;;;9.00;99.90;;;;;;7581638;19;20017;-81
2023/03/31 06:49:37;;;;;;;18.00;8.52;;;9.10;99.90;;;;;;7565116;19;20003;-81
2023/03/31 06:52:13;;;;;;;18.13;8.60;;;9.20;99.90;;;;;;7595061;19;20019;-79
2023/03/31 06:54:45;;;;;;;17.27;8.48;;;9.30;99.90;;;;;;7586649;19;20021;-78
2023/03/31 06:57:19;;;;;;;15.50;9.20;;;9.40;99.90;;;;;;7565126;19;20025;-80
2023/03/31 06:59:54;;;;;;;18.65;9.02;;;9.40;99.90;;;;;;7564920;19;20334;-83
2023/03/31 07:02:30;;;;;;;24.65;9.40;;;9.50;99.90;;;;;;7546863;19;20531;-82
2023/03/31 07:05:02;;;;;;;17.77;9.32;;;9.50;99.90;;;;;;7573397;19;20101;-77
2023/03/31 07:07:34;;;;;;;18.10;8.60;;;9.50;99.90;;;;;;7584552;19;20018;-81
2023/03/31 07:10:07;;;;;;;14.85;9.32;;;9.60;99.90;;;;;;7570922;19;20045;-79
2023/03/31 07:12:39;;;;;;;19.10;9.17;;;9.60;99.90;;;;;;6560017;19;10000569;-80
2023/03/31 07:15:12;;;;;;;15.85;9.23;;;9.60;99.90;;;;;;7571593;19;20018;-82
2023/03/31 07:17:44;;;;;;;17.20;7.32;;;9.60;99.90;;;;;;7579551;19;20498;-79
2023/03/31 07:20:18;;;;;;;17.67;10.23;;;9.60;99.90;;;;;;7574292;19;20040;-81
2023/03/31 07:22:50;;;;;;;15.80;10.18;;;9.40;99.90;;;;;;7581764;19;20014;-78
2023/03/31 07:25:23;;;;;;;17.15;11.10;;;9.40;99.90;;;;;;7578689;19;20018;-80
2023/03/31 07:27:55;;;;;;;21.00;11.27;;;9.20;99.90;;;;;;7569194;19;20007;-80
2023/03/31 07:30:27;;;;;;;19.02;10.48;;;9.30;99.90;;;;;;7576916;19;20328;-81
2023/03/31 07:33:01;;;;;;;25.40;13.82;;;9.20;99.90;;;;;;7544916;19;20906;-79
2023/03/31 07:35:36;;;;;;;;;;;9.20;99.90;;;;;;7565295;19;20034;-77
2023/03/31 07:38:09;;;;;;;20.05;12.10;;;9.20;99.90;;;;;;7568225;19;19927;-78
2023/03/31 07:40:43;;;;;;;26.77;13.18;;;9.20;99.90;;;;;;7576838;19;20022;-79
2023/03/31 07:43:18;;;;;;;22.80;12.60;;;9.20;99.90;;;;;;7556388;19;20058;-76
2023/03/31 07:45:50;;;;;;;35.42;14.48;;;9.20;99.90;;;;;;7539986;19;24964;-79
2023/03/31 07:48:23;;;;;;;39.38;15.93;;;9.20;99.90;;;;;;7557247;19;20816;-78
2023/03/31 07:50:55;;;;;;;24.45;13.65;;;9.20;99.90;;;;;;7557564;19;20039;-79
2023/03/31 07:53:35;;;;;;;23.88;12.50;;;9.20;99.90;;;;;;7529303;19;21495;-78
2023/03/31 07:56:07;;;;;;;23.40;14.65;;;9.30;99.90;;;;;;7577441;19;20017;-80
2023/03/31 07:58:39;;;;;;;24.52;13.15;;;9.30;99.90;;;;;;7542496;19;20086;-78
2023/03/31 08:01:16;;;;;;;27.08;14.98;;;9.40;99.90;;;;;;7585203;19;20804;-77
2023/03/31 08:03:48;;;;;;;26.30;14.10;;;9.40;99.90;;;;;;7552990;19;21048;-80
2023/03/31 08:06:23;;;;;;;31.27;14.82;;;9.40;99.90;;;;;;7574771;19;20682;-80
2023/03/31 08:08:56;;;;;;;27.13;13.60;;;9.50;99.90;;;;;;7567381;19;20022;-79
2023/03/31 08:11:28;;;;;;;;;;;9.60;99.90;;;;;;7533156;19;20026;-79
2023/03/31 08:14:01;;;;;;;26.35;14.07;;;9.60;99.90;;;;;;7571306;19;20595;-79
2023/03/31 08:16:33;;;;;;;28.23;14.13;;;9.70;99.90;;;;;;7551534;19;20019;-82
2023/03/31 08:19:05;;;;;;;27.33;12.98;;;9.60;99.90;;;;;;7567472;19;20013;-81
2023/03/31 08:21:37;;;;;;;20.95;11.88;;;9.70;99.90;;;;;;7554870;19;20062;-78
2023/03/31 08:24:09;;;;;;;29.42;12.77;;;9.80;99.90;;;;;;7528617;19;20021;-78
2023/03/31 08:26:42;;;;;;;23.92;12.30;;;9.70;99.90;;;;;;7559176;19;20352;-80
2023/03/31 08:29:14;;;;;;;21.05;12.05;;;9.80;99.90;;;;;;7560309;19;20022;-80
2023/03/31 08:31:47;;;;;;;20.85;11.10;;;9.80;99.90;;;;;;7533633;19;20025;-78
2023/03/31 08:34:19;;;;;;;27.17;11.52;;;9.80;99.90;;;;;;7566749;19;20031;-78
2023/03/31 08:36:52;;;;;;;23.48;11.98;;;9.80;99.90;;;;;;7573764;19;20554;-80
2023/03/31 08:39:26;;;;;;;19.38;11.50;;;9.90;99.90;;;;;;7566959;19;20393;-80
2023/03/31 08:42:10;;;;;;;19.90;11.13;;;9.90;99.90;;;;;;7597193;19;20022;-78
2023/03/31 08:45:00;;;;;;;20.42;11.77;;;10.00;99.90;;;;;;7587091;19;20023;-79
2023/03/31 08:47:35;;;;;;;20.63;10.98;;;9.90;99.90;;;;;;7555372;19;20250;-79
2023/03/31 08:50:14;;;;;;;15.52;8.68;;;9.90;99.90;;;;;;7569600;19;20050;-79
2023/03/31 08:53:09;;;;;;;19.83;11.40;;;9.90;99.90;;;;;;7553406;19;20010;-80
2023/03/31 08:55:55;;;;;;;19.73;11.13;;;9.80;99.90;;;;;;7557288;19;20046;-78
2023/03/31 08:58:43;;;;;;;20.88;12.32;;;9.80;99.90;;;;;;7539896;19;20029;-79
2023/03/31 09:01:37;;;;;;;24.38;11.80;;;9.80;99.90;;;;;;7540577;19;20440;-79
2023/03/31 09:04:31;;;;;;;21.45;11.85;;;9.70;99.90;;;;;;7579723;19;20015;-81
2023/03/31 09:07:14;;;;;;;23.55;13.02;;;9.70;99.90;;;;;;7585195;19;20022;-81
2023/03/31 09:10:22;;;;;;;24.10;11.77;;;9.60;99.90;;;;;;7588700;19;20053;-81
2023/03/31 09:13:13;;;;;;;18.13;9.82;;;9.70;99.90;;;;;;7593753;19;20651;-79
2023/03/31 09:16:02;;;;;;;16.15;8.98;;;9.80;99.90;;;;;;7572422;19;21172;-78
2023/03/31 09:18:37;;;;;;;13.57;6.70;;;9.80;99.90;;;;;;7587562;19;20361;-80
2023/03/31 09:21:26;;;;;;;11.18;6.05;;;9.90;99.90;;;;;;7574147;19;20900;-79
2023/03/31 09:24:10;;;;;;;12.43;7.03;;;10.10;99.90;;;;;;7581396;19;21135;-79
2023/03/31 09:26:47;;;;;;;15.52;6.75;;;10.10;99.90;;;;;;7571983;19;20011;-79
2023/03/31 09:29:31;;;;;;;11.35;7.05;;;10.20;99.90;;;;;;7587848;19;20018;-79
2023/03/31 09:32:22;;;;;;;10.02;6.13;;;10.40;99.90;;;;;;7568768;19;20606;-80
2023/03/31 09:35:20;;;;;;;11.82;7.07;;;10.40;99.90;;;;;;7576176;19;20070;-79
2023/03/31 09:37:53;;;;;;;12.07;6.07;;;10.60;99.90;;;;;;7577286;19;20573;-77
2023/03/31 09:40:30;;;;;;;11.73;7.00;;;10.90;99.90;;;;;;7583257;19;20025;-79
2023/03/31 09:43:14;;;;;;;11.25;6.00;;;11.10;99.90;;;;;;7583321;19;20014;-80
2023/03/31 09:45:47;;;;;;;11.30;6.05;;;11.20;99.90;;;;;;7596122;19;20030;-80
2023/03/31 09:48:41;;;;;;;8.70;5.30;;;11.30;99.90;;;;;;7600674;19;20022;-78
2023/03/31 09:51:24;;;;;;;12.32;6.82;;;11.40;99.90;;;;;;7593139;19;20513;-79
2023/03/31 09:54:01;;;;;;;8.93;4.43;;;11.50;99.90;;;;;;7603610;19;20015;-78
2023/03/31 09:56:45;;;;;;;11.88;6.65;;;11.60;99.90;;;;;;7604284;19;20103;-80
2023/03/31 09:59:19;;;;;;;11.98;6.07;;;11.60;99.90;;;;;;7606742;19;20022;-79
2023/03/31 10:01:57;;;;;;;11.80;5.95;;;11.60;99.90;;;;;;7597342;19;20977;-79
2023/03/31 10:04:33;;;;;;;12.00;5.43;;;11.70;99.90;;;;;;7600840;19;20845;-78
2023/03/31 10:07:06;;;;;;;9.23;6.35;;;11.80;99.90;;;;;;7589846;19;20014;-79
2023/03/31 10:09:39;;;;;;;;;;;11.80;99.90;;;;;;7601755;19;20014;-79
2023/03/31 10:12:19;;;;;;;10.88;6.32;;;11.90;99.90;;;;;;7599704;19;20551;-78
2023/03/31 10:14:53;;;;;;;12.63;6.97;;;11.80;99.90;;;;;;7599708;19;20881;-78
2023/03/31 10:17:27;;;;;;;10.38;5.30;;;11.90;99.90;;;;;;7592347;19;20730;-80
2023/03/31 10:20:17;;;;;;;9.02;6.03;;;12.00;99.90;;;;;;7609846;19;20398;-77
2023/03/31 10:22:50;;;;;;;10.70;5.30;;;12.00;99.90;;;;;;6584572;19;10001193;-78
2023/03/31 10:25:27;;;;;;;9.60;5.38;;;12.10;99.90;;;;;;7604797;19;20022;-80
2023/03/31 10:28:01;;;;;;;7.05;4.40;;;12.30;99.90;;;;;;7608721;19;20010;-80
2023/03/31 10:30:36;;;;;;;6.18;3.53;;;12.40;99.90;;;;;;7605395;19;20576;-79
2023/03/31 10:33:16;;;;;;;7.07;3.75;;;12.40;99.90;;;;;;7612070;19;20014;-80
2023/03/31 10:35:57;;;;;;;7.88;3.88;;;12.40;99.90;;;;;;7608200;19;20059;-79
2023/03/31 10:38:33;;;;;;;12.27;4.68;;;12.50;99.90;;;;;;7591570;19;20538;-81
2023/03/31 10:41:06;;;;;;;6.70;5.07;;;12.50;99.90;;;;;;7609717;19;20079;-79
2023/03/31 10:43:49;;;;;;;16.67;5.70;;;12.60;99.90;;;;;;7606175;19;20029;-79
2023/03/31 10:46:45;;;;;;;8.63;5.03;;;12.90;99.90;;;;;;7610151;19;20591;-81
2023/03/31 10:49:20;;;;;;;7.43;5.20;;;12.90;99.90;;;;;;7607028;19;20979;-79
2023/03/31 10:51:55;;;;;;;12.65;5.55;;;12.90;99.90;;;;;;7611752;19;20018;-79
2023/03/31 10:54:27;;;;;;;10.05;5.05;;;12.90;99.90;;;;;;7585789;19;20032;-81
2023/03/31 10:57:05;;;;;;;10.55;5.22;;;12.90;99.90;;;;;;7605760;19;20018;-79
2023/03/31 10:59:58;;;;;;;9.50;5.35;;;12.90;99.90;;;;;;7603002;19;20575;-79
2023/03/31 11:02:42;;;;;;;11.82;6.10;;;13.00;99.90;;;;;;7599498;19;20614;-79
2023/03/31 11:05:21;;;;;;;12.05;5.78;;;12.90;99.90;;;;;;7607903;19;20031;-79
2023/03/31 11:08:12;;;;;;;8.75;5.18;;;13.00;99.90;;;;;;7604575;19;20145;-78
2023/03/31 11:10:53;;;;;;;9.27;5.47;;;13.00;99.90;;;;;;7601472;19;20093;-78
2023/03/31 11:13:33;;;;;;;9.85;5.15;;;13.00;99.90;;;;;;7601815;19;20011;-80
2023/03/31 11:16:20;;;;;;;8.85;5.40;;;12.90;99.90;;;;;;7609754;19;20011;-80
2023/03/31 11:19:15;;;;;;;10.45;6.18;;;13.00;99.90;;;;;;7611579;19;20011;-81
2023/03/31 11:22:30;;;;;;;14.38;5.60;;;12.90;99.90;;;;;;7611566;19;20026;-80
2023/03/31 11:25:40;;;;;;;9.52;4.70;;;12.80;99.90;;;;;;7609484;19;20375;-79
2023/03/31 11:28:42;;;;;;;13.50;6.30;;;12.50;99.90;;;;;;7604405;19;20039;-78
2023/03/31 11:31:46;;;;;;;10.20;4.93;;;11.90;99.90;;;;;;7611131;19;20014;-78
2023/03/31 11:34:21;;;;;;;17.98;5.82;;;11.30;99.90;;;;;;7611199;19;20418;-76
2023/03/31 11:37:06;;;;;;;11.43;5.68;;;10.50;99.90;;;;;;7607808;19;20039;-78
2023/03/31 11:39:46;;;;;;;9.60;3.85;;;9.80;99.90;;;;;;7608326;19;20018;-78
2023/03/31 11:42:47;;;;;;;7.53;3.92;;;9.50;99.90;;;;;;7610819;19;20025;-78
2023/03/31 11:45:36;;;;;;;8.10;3.50;;;9.10;99.90;;;;;;7601556;19;20419;-77
2023/03/31 11:48:25;;;;;;;5.50;2.17;;;9.20;99.90;;;;;;7614663;19;20026;-77
2023/03/31 11:51:00;;;;;;;3.80;1.90;;;9.10;99.90;;;;;;7607025;19;20596;-77
2023/03/31 11:53:38;;;;;;;3.22;1.75;;;9.10;99.90;;;;;;7607972;19;20026;-78
2023/03/31 11:56:12;;;;;;;3.17;1.85;;;9.20;99.90;;;;;;7609414;19;20051;-78
2023/03/31 11:58:51;;;;;;;3.88;2.10;;;9.30;99.90;;;;;;7583679;19;20020;-77
2023/03/31 12:01:45;;;;;;;2.95;1.75;;;9.20;99.90;;;;;;7600036;19;20037;-76
2023/03/31 12:04:37;;;;;;;2.55;1.33;;;9.40;99.90;;;;;;7604801;19;20791;-78
2023/03/31 12:07:31;;;;;;;3.00;1.73;;;9.60;99.90;;;;;;7597046;19;20018;-77
2023/03/31 12:10:16;;;;;;;7.93;2.33;;;9.70;99.90;;;;;;7602890;19;20022;-76
2023/03/31 12:13:06;;;;;;;3.13;1.75;;;9.90;99.90;;;;;;7600840;19;20028;-77
2023/03/31 12:15:43;;;;;;;5.82;2.42;;;10.20;99.90;;;;;;7594288;19;20025;-77
2023/03/31 12:18:21;;;;;;;5.07;2.50;;;10.40;99.90;;;;;;7583647;19;20901;-78
2023/03/31 12:21:01;;;;;;;5.07;2.28;;;10.40;99.90;;;;;;7602185;19;20018;-77
2023/03/31 12:23:43;;;;;;;1.92;1.55;;;10.40;99.90;;;;;;7608689;19;21126;-76
2023/03/31 12:27:11;;;;;;;6.15;2.20;;;10.50;99.90;;;;;;7610195;19;20019;-77
2023/03/31 12:30:09;;;;;;;4.35;2.55;;;10.50;99.90;;;;;;7601652;19;20034;-76
2023/03/31 12:32:59;;;;;;;3.75;2.20;;;10.60;99.90;;;;;;7609063;19;20596;-77
2023/03/31 12:35:57;;;;;;;10.18;2.58;;;10.60;99.90;;;;;;7612026;19;20034;-77
2023/03/31 12:38:47;;;;;;;3.83;2.90;;;10.80;99.90;;;;;;7614210;19;20085;-78
2023/03/31 12:41:34;;;;;;;5.82;3.67;;;10.90;99.90;;;;;;7613284;19;20033;-77
2023/03/31 12:44:21;;;;;;;5.72;3.00;;;11.00;99.90;;;;;;7607367;19;20106;-76
2023/03/31 12:47:08;;;;;;;6.90;4.15;;;11.00;99.90;;;;;;7583614;19;20777;-79
2023/03/31 12:50:09;;;;;;;9.75;3.65;;;11.00;99.90;;;;;;7615813;19;20037;-78
2023/03/31 12:52:57;;;;;;;7.07;3.85;;;11.10;99.90;;;;;;7597770;19;20019;-78
2023/03/31 12:55:36;;;;;;;7.07;3.10;;;11.10;99.90;;;;;;7613098;19;20014;-77
2023/03/31 12:58:25;;;;;;;6.35;3.50;;;11.00;99.90;;;;;;7606515;19;20623;-78
2023/03/31 13:01:04;;;;;;;10.32;4.00;;;10.90;99.90;;;;;;7613081;19;20014;-78
2023/03/31 13:03:53;;;;;;;7.72;4.55;;;11.00;99.90;;;;;;7611702;19;20018;-77
2023/03/31 13:06:28;;;;;;;7.93;5.00;;;11.50;99.90;;;;;;7613309;19;20018;-77
2023/03/31 13:09:07;;;;;;;6.25;2.90;;;12.00;99.90;;;;;;7615027;19;20597;-78
2023/03/31 13:11:43;;;;;;;5.53;2.97;;;12.20;99.90;;;;;;7612372;19;20019;-77
2023/03/31 13:14:41;;;;;;;5.53;2.30;;;12.40;99.90;;;;;;7617446;19;20026;-77
2023/03/31 13:17:23;;;;;;;3.53;1.42;;;12.30;99.90;;;;;;7598390;19;20036;-77
2023/03/31 13:20:15;;;;;;;6.38;1.08;;;12.10;93.20;;;;;;7614859;19;20019;-78
2023/03/31 13:22:48;;;;;;;4.38;1.30;;;11.80;94.40;;;;;;7613634;19;20061;-80
2023/03/31 13:25:29;;;;;;;4.82;1.48;;;11.60;97.30;;;;;;7623209;19;20535;-77
2023/03/31 13:28:17;;;;;;;3.67;1.30;;;11.40;98.70;;;;;;7613708;19;20021;-79
2023/03/31 13:30:52;;;;;;;3.72;1.17;;;11.20;98.90;;;;;;7614945;19;20018;-80
2023/03/31 13:33:32;;;;;;;4.63;1.60;;;11.00;98.90;;;;;;7621876;19;20993;-80
2023/03/31 13:36:29;;;;;;;3.92;1.45;;;11.00;99.50;;;;;;7613880;19;20449;-79
2023/03/31 13:39:39;;;;;;;3.50;1.20;;;10.80;96.70;;;;;;7613870;19;20018;-79
2023/03/31 13:42:23;;;;;;;3.67;1.30;;;10.80;95.90;;;;;;7613051;19;20022;-79
2023/03/31 13:45:20;;;;;;;6.25;1.33;;;10.90;96.40;;;;;;7608654;19;20014;-79